LPHR/HOR METAR and TAF weather

Enter ICAO airport designator
Station Type Date Time Source
LPHR METAR 2020/07/07 20:00 UTC NOAA

LPHR 072000Z 21003KT 180V250 9999 SCT015 BKN037 23/17 Q1025


Station Type Date Time Source
LPHR Decoded METAR 2020/07/07 20:00 UTC NOAA

Horta / Castelo Branco Acores , Portugal (LPHR) 38-31N 028-43W 41M
Jul 07, 2020 - 04:00 PM EDT / 2020.07.07 2000 UTC
Wind: from the SSW (210 degrees) at 3 MPH (3 KT) (direction variable):0
Visibility: greater than 7 mile(s):0
Sky conditions: mostly cloudy
Temperature: 73 F (23 C)
Dew Point: 62 F (17 C)
Relative Humidity: 68%
Pressure (altimeter): 30.27 in. Hg (1025 hPa)
ob: LPHR 072000Z 21003KT 180V250 9999 SCT015 BKN037 23/17 Q1025
cycle: 20

Station Type Date Time Source
LPHR TAF 2018/09/06 09:00 UTC NOAA

TAF LPHR 060800Z 0609/0618 12010KT 9999 SCT018 SCT040 PROB30
TEMPO 0609/0618 5000 SHRA BKN015 FEW018CB
BECMG 0610/0612 18010KT

Example: see airport list